logo tempoitalia

Diretta Meteo Voronez, Russialunedì 31 agosto ore 08:00

Mappa
Sereno 19 °C Sereno 24 Ore: T.min 11 T.max 25
Ponente Sud-Ovest Km/h 10.8 Punto di rugiada: 8 °C Umidità: 48% Visibilità: 10 Km
Il sole sorge alle: 05:33 Il sole tramonta alle: 19:12
31 Agosto 2026 08:00 tempo osservato: Sereno Sereno 19 48 1021 vento: Nord SO 10.8
31 Agosto 2026 07:30 tempo osservato: Sereno Sereno 18 55 1021 vento: Nord N 7.2
31 Agosto 2026 07:00 tempo osservato: Sereno Sereno 15 76 1021 vento: Nord N 7.2
31 Agosto 2026 06:30 tempo osservato: Sereno Sereno 13 87 1021 vento: Nord N 7.2
31 Agosto 2026 06:00 tempo osservato: Sereno Sereno 12 87 1021 vento: Nord N 7.2
31 Agosto 2026 05:30 tempo osservato: Sereno Sereno 12 87 1021 vento: Nord N 7.2
31 Agosto 2026 05:00 tempo osservato: Sereno Sereno 11 87 1021 vento: Nord SE 10.8
31 Agosto 2026 04:30 tempo osservato: Sereno Sereno 11 87 1021 vento: Nord N 7.2
31 Agosto 2026 04:00 tempo osservato: Sereno Sereno 11 87 1021 vento: Nord N 7.2
31 Agosto 2026 03:30 tempo osservato: Sereno Sereno 11 87 1021 vento: Nord N 7.2
31 Agosto 2026 03:00 tempo osservato: Sereno Sereno 11 87 1021 vento: Nord N 7.2
31 Agosto 2026 02:30 tempo osservato: Sereno Sereno 12 81 1021 vento: Nord N 3.6
31 Agosto 2026 02:00 tempo osservato: Sereno Sereno 12 81 1021 vento: Nord N 7.2
31 Agosto 2026 01:30 tempo osservato: Sereno Sereno 14 76 1021 vento: Nord N 7.2
31 Agosto 2026 01:00 tempo osservato: Sereno Sereno 14 71 1021 vento: Nord N 7.2
31 Agosto 2026 00:30 tempo osservato: Sereno Sereno 15 72 1021 vento: Nord E/SE 10.8
31 Agosto 2026 00:00 tempo osservato: Sereno Sereno 15 67 1021 vento: Nord E/SE 10.8
30 Agosto 2026 23:30 tempo osservato: Sereno Sereno 14 71 1021 vento: Nord N 7.2
30 Agosto 2026 23:00 tempo osservato: Sereno Sereno 15 72 1021 vento: Nord E/SE 10.8
30 Agosto 2026 22:30 tempo osservato: Sereno Sereno 15 72 1021 vento: Nord E/SE 10.8
30 Agosto 2026 22:00 tempo osservato: Sereno Sereno 16 67 1021 vento: Nord E/SE 10.8
30 Agosto 2026 21:30 tempo osservato: Sereno Sereno 15 72 1021 vento: Nord E/SE 10.8
30 Agosto 2026 21:00 tempo osservato: Sereno Sereno 16 67 1021 vento: Nord N 7.2
30 Agosto 2026 20:30 tempo osservato: Sereno Sereno 17 63 1021 vento: Nord N 7.2
30 Agosto 2026 20:00 tempo osservato: Sereno Sereno 18 63 1021 vento: Nord N 7.2
30 Agosto 2026 19:30 tempo osservato: Sereno Sereno 17 67 1021 vento: Nord N 7.2
30 Agosto 2026 19:00 tempo osservato: Sereno Sereno 18 59 1021 vento: Nord N 3.6
30 Agosto 2026 18:30 tempo osservato: Sereno Sereno 21 52 1021 vento: Nord N 7.2
30 Agosto 2026 18:00 tempo osservato: Sereno Sereno 23 43 1021 vento: Nord N 7.2
30 Agosto 2026 17:30 tempo osservato: Sereno Sereno 25 33 1021 vento: Nord N 7.2
30 Agosto 2026 17:00 tempo osservato: Sereno Sereno 25 33 1021 vento: Nord S/SE 10.8
30 Agosto 2026 16:30 tempo osservato: Sereno Sereno 25 31 1021 vento: Nord SE 10.8
30 Agosto 2026 16:00 tempo osservato: Sereno Sereno 25 31 1021 vento: Nord S/SE 14.4
30 Agosto 2026 15:30 tempo osservato: Sereno Sereno 25 33 1021 vento: Nord S/SE 10.8
30 Agosto 2026 15:00 tempo osservato: Sereno Sereno 25 33 1022 vento: Nord SE 10.8
30 Agosto 2026 14:30 tempo osservato: Sereno Sereno 25 31 1022 vento: Nord S/SE 14.4
30 Agosto 2026 14:00 tempo osservato: Sereno Sereno 25 33 1022 vento: Nord SE 14.4
30 Agosto 2026 13:30 tempo osservato: Sereno Sereno 24 33 1022 vento: Nord S/SE 14.4
30 Agosto 2026 13:00 tempo osservato: Sereno Sereno 24 35 1023 vento: Nord S/SE 14.4
30 Agosto 2026 12:30 tempo osservato: Sereno Sereno 24 35 1023 vento: Nord S/SE 10.8
30 Agosto 2026 12:00 tempo osservato: Sereno Sereno 23 38 1023 vento: Nord S/SE 14.4
30 Agosto 2026 11:30 tempo osservato: Sereno Sereno 23 40 1023 vento: Nord S/SE 14.4
30 Agosto 2026 11:00 tempo osservato: Sereno Sereno 22 43 1023 vento: Nord SE 14.4
30 Agosto 2026 10:30 tempo osservato: Sereno Sereno 21 49 1024 vento: Nord SE 10.8
30 Agosto 2026 10:00 tempo osservato: Sereno Sereno 20 52 1024 vento: Nord SE 10.8
30 Agosto 2026 09:30 tempo osservato: Sereno Sereno 18 55 1024 vento: Nord SE 10.8
30 Agosto 2026 09:00 tempo osservato: Sereno Sereno 17 59 1024 vento: Nord SE 10.8